Main page
METAR-TAF:

METAR-TAF

Airports :

Kärdla Airport

Kärdla, Estonia

latitude: 58-59N, longitude: 022-49E, elevation: 5 m

Current weather observation

The report was made 6 minutes ago, at 04:20 UTC
Wind 5 kt from the Southeast
Temperature 20°C
Humidity 83%
Pressure 1016 hPa
Visibility 10 km or more
no clouds below 1500 m and no cumulonimbus

METAR: EEKA 150420Z 13005KT CAVOK 20/17 Q1016

Time: 07:26 (04:26 UTC)

Forecast

The report was made 1 hour and 26 minutes ago, at 03:00 UTC
Forecast valid from 15 at 04 UTC to 15 at 10 UTC
Wind 7 kt from the East/Southeast
Visibility 10 km or more
no clouds below 1500 m and no cumulonimbus
Temporary
from 15 at 07 UTC to 15 at 10 UTC
Few clouds at a height of 3000 ft, Cumulonimbus.

TAF: EEKA 150300Z 1504/1510 12007KT CAVOK TEMPO 1507/1510 FEW030CB

Weather observations and forecasts of more than 4000 airports (METAR and TAF reports).

The available stations are represented by yellow and red dots on the map.

Hover mouse over dot to see the name of the station.

Then click to see weather observations and forecasts.

To change the map : click on the green buttons with a black cross to zoom in, on the green button with a dash to zoom out, or on the green arrows for adjacent maps.


METAR-TAF: